Flight Track Log - Related Links

Times and Time Zones

All times are in EDT time to prevent confusion due to time zone crossing. See the UAL4543 flight status page for this flight to view local times or setup timezone preferences in your user account.

Time Position Orientation Groundspeed Altitude Reporting Facility
EDT Latitude Longitude Course Direction KTS MPH feet Rate Location/Type
Thu 04:15:27 PM 35.8967 -78.7767 18° North 170 196 1,300  Level Washington Center
Thu 04:16:38 PM 35.9683 -78.7486 18° North 221 254 3,700 2,519 Climbing Washington Center
Thu 04:17:38 PM 36.0381 -78.7233 16° North 240 276 6,800 2,826 Climbing Washington Center
Thu 04:18:39 PM 36.1136 -78.6981 15° North 259 298 9,400 2,150 Climbing Washington Center
Thu 04:19:38 PM 36.1894 -78.6700 17° North 282 325 11,100 1,462 Climbing Washington Center
Thu 04:20:38 PM 36.2781 -78.6400 15° North 333 383 12,300 1,650 Climbing Washington Center
Thu 04:21:38 PM 36.3853 -78.6028 16° North 365 420 14,400 1,800 Climbing Washington Center
Thu 04:22:38 PM 36.4758 -78.5703 16° North 371 427 15,900 1,550 Climbing Washington Center
Thu 04:23:38 PM 36.5811 -78.5356 15° North 376 433 17,500 1,550 Climbing Washington Center
Thu 04:24:38 PM 36.7011 -78.4883 18° North 390 449 19,000 1,400 Climbing Washington Center
Thu 04:25:38 PM 36.7942 -78.4372 24° Northeast 395 455 20,300 1,400 Climbing Washington Center
Thu 04:26:38 PM 36.8964 -78.3500 34° Northeast 414 476 21,800 1,500 Climbing Washington Center
Thu 04:27:38 PM 37.0006 -78.2653 33° Northeast 435 501 23,300 1,450 Climbing Washington Center
Thu 04:28:38 PM 37.1022 -78.1856 32° Northeast 440 506 24,700 1,400 Climbing Washington Center
Thu 04:29:38 PM 37.2000 -78.1028 34° Northeast 440 506 26,100 1,150 Climbing Washington Center
Thu 04:30:38 PM 37.3019 -78.0200 33° Northeast 440 506 27,000 450 Climbing Washington Center
Thu 04:31:38 PM 37.4100 -77.9267 34° Northeast 446 513 27,000  Level Washington Center
Thu 04:32:39 PM 37.5225 -77.8358 33° Northeast 465 535 27,000  Level Washington Center
Thu 04:33:38 PM 37.6347 -77.7342 36° Northeast 481 554 27,000  Level Washington Center
Thu 04:34:38 PM 37.7428 -77.6350 36° Northeast 486 559 27,000  Level Washington Center
Thu 04:35:39 PM 37.8467 -77.5403 36° Northeast 474 545 27,000  Level Washington Center
Thu 04:36:38 PM 37.9461 -77.4481 36° Northeast 458 527 27,000  Level Washington Center
Thu 04:37:38 PM 38.0475 -77.3611 34° Northeast 453 521 27,000  Level Washington Center
Thu 04:38:39 PM 38.1492 -77.2658 36° Northeast 448 516 27,000  Level Washington Center
Thu 04:39:38 PM 38.2506 -77.1675 37° Northeast 448 516 27,000  Level Washington Center
Thu 04:40:38 PM 38.3539 -77.0769 34° Northeast 453 521 27,000  Level Washington Center
Thu 04:41:39 PM 38.4592 -76.9783 36° Northeast 459 528 27,000  Level Washington Center
Thu 04:42:38 PM 38.5689 -76.8742 37° Northeast 469 540 27,000  Level Washington Center
Thu 04:43:38 PM 38.6783 -76.7697 37° Northeast 479 551 27,000  Level Washington Center
Thu 04:44:38 PM 38.7711 -76.6594 43° Northeast 478 550 27,000  Level Washington Center
Thu 04:45:38 PM 38.8847 -76.5383 40° Northeast 490 564 27,000  Level Washington Center
Thu 04:46:38 PM 38.9878 -76.4169 42° Northeast 495 570 27,000  Level Washington Center
Thu 04:47:38 PM 39.0906 -76.3003 41° Northeast 495 570 27,000  Level Washington Center
Thu 04:48:38 PM 39.1933 -76.1753 43° Northeast 495 570 27,000  Level Washington Center
Thu 04:49:38 PM 39.3022 -76.0556 40° Northeast 508 585 27,000 -267 Level Washington Center
Thu 04:51:00 PM 39.4080 -75.9241 44° Northeast  Level FlightAware Approximate
Thu 04:51:38 PM 39.5133 -75.8042 44° Northeast 508 585 26,200  Level Washington Center
Thu 04:52:38 PM 39.6178 -75.6831 42° Northeast 508 585 24,800 -1,850 Descending Washington Center
Thu 04:53:38 PM 39.7197 -75.5619 42° Northeast 501 577 22,500 -2,450 Descending Washington Center
Thu 04:54:38 PM 39.8136 -75.4483 43° Northeast 481 554 19,900 -2,450 Descending Washington Center
Thu 04:55:38 PM 39.9028 -75.3372 44° Northeast 454 522 17,600 -2,500 Descending Washington Center
Thu 04:56:38 PM 39.9858 -75.2367 43° Northeast 429 494 14,900 -2,500 Descending Washington Center
Thu 04:57:38 PM 40.0647 -75.1414 43° Northeast 397 457 12,600 -1,937 Descending Washington Center
Thu 04:58:45 PM 40.1500 -75.0333 44° Northeast 334 384 10,800 -1,512 Descending New York TRACON
Thu 04:59:45 PM 40.2167 -74.9667 37° Northeast 295 339 9,400 -1,400 Descending New York TRACON
Thu 05:00:45 PM 40.2667 -74.8833 52° Northeast 283 326 8,000 -900 Descending New York TRACON
Thu 05:01:45 PM 40.3167 -74.8167 45° Northeast 282 325 7,600 -700 Descending New York TRACON
Thu 05:02:45 PM 40.3667 -74.7333 52° Northeast 278 320 6,600 -800 Descending New York TRACON
Thu 05:03:45 PM 40.4333 -74.6667 37° Northeast 277 319 6,000 -300 Descending New York TRACON
Thu 05:04:45 PM 40.5000 -74.6500 11° North 272 313 6,000  Level New York TRACON
Thu 05:05:45 PM 40.5667 -74.6333 11° North 265 305 6,000  Level New York TRACON
Thu 05:06:45 PM 40.6500 -74.6167 North 261 300 6,000  Level New York TRACON
Thu 05:07:45 PM 40.7167 -74.5833 21° North 261 300 6,000  Level New York TRACON
Thu 05:08:45 PM 40.7833 -74.5500 21° North 260 299 6,000 -286 Level New York TRACON
Thu 05:09:51 PM 40.8500 -74.5000 30° Northeast 260 299 5,400 -500 Descending New York TRACON
Thu 05:10:45 PM 40.9167 -74.4667 21° North 255 293 5,000 -211 Descending New York TRACON
Thu 05:11:45 PM 40.9333 -74.3833 75° East 233 268 5,000 -250 Level New York TRACON
Thu 05:12:45 PM 40.9500 -74.3167 72° East 228 262 4,500 -500 Descending New York TRACON
Thu 05:13:45 PM 40.9500 -74.2333 90° East 207 238 4,000 -250 Descending New York TRACON
Thu 05:14:45 PM 40.9333 -74.1667 108° East 199 229 4,000  Level New York TRACON
Thu 05:15:45 PM 40.9000 -74.1000 123° Southeast 198 228 4,000 -250 Level New York TRACON
Thu 05:16:45 PM 40.8833 -74.0667 123° Southeast 195 224 3,500 -550 Descending New York TRACON
Thu 05:17:45 PM 40.8333 -74.0833 194° South 176 203 2,900 -600 Descending New York TRACON

Login

Don't have an account? Register now (free) for customized features, flight alerts, and more!